createdAt,value
2018-08-06T00:00:01.175Z,1.19
2018-08-06T00:00:13.705Z,1.19
2018-08-06T00:00:26.256Z,1.19
2018-08-06T00:00:38.823Z,1.19
2018-08-06T00:00:51.386Z,1.19
2018-08-06T00:01:03.901Z,1.19
2018-08-06T00:01:16.463Z,1.19
2018-08-06T00:01:29.041Z,1.45
2018-08-06T00:01:41.756Z,1.45
2018-08-06T00:01:54.277Z,1.45
2018-08-06T00:02:06.795Z,1.45
2018-08-06T00:02:19.433Z,1.45
2018-08-06T00:02:31.946Z,1.45
2018-08-06T00:02:44.499Z,1.45
2018-08-06T00:02:57.009Z,1.45
2018-08-06T00:03:09.522Z,1.45
2018-08-06T00:03:22.095Z,1.45
2018-08-06T00:03:34.619Z,1.45
2018-08-06T00:03:47.084Z,1.45
2018-08-06T00:03:59.585Z,1.45
2018-08-06T00:04:12.086Z,1.45
2018-08-06T00:04:24.646Z,1.45
2018-08-06T00:04:37.149Z,1.45
2018-08-06T00:04:49.656Z,1.45
2018-08-06T00:05:02.182Z,1.45
2018-08-06T00:05:14.723Z,1.45
2018-08-06T00:05:27.657Z,1.45
2018-08-06T00:05:40.170Z,1.45
2018-08-06T00:05:52.670Z,1.45
2018-08-06T00:06:05.178Z,1.45
2018-08-06T00:06:17.722Z,1.45
2018-08-06T00:06:30.254Z,1.45
2018-08-06T00:06:42.822Z,1.45
2018-08-06T00:06:55.351Z,1.45
2018-08-06T00:07:07.866Z,1.45
2018-08-06T00:07:20.362Z,1.45
2018-08-06T00:07:32.890Z,1.45
2018-08-06T00:07:45.387Z,1.45
2018-08-06T00:07:57.933Z,1.45
2018-08-06T00:08:10.841Z,1.45
2018-08-06T00:08:23.342Z,1.45
2018-08-06T00:08:35.861Z,1.45
2018-08-06T00:08:48.425Z,1.45
2018-08-06T00:09:00.933Z,1.45
2018-08-06T00:09:13.454Z,1.45
2018-08-06T00:09:25.973Z,1.45
2018-08-06T00:09:38.492Z,1.45
2018-08-06T00:09:51.011Z,1.45
2018-08-06T00:10:03.515Z,1.45
2018-08-06T00:10:16.023Z,1.45
2018-08-06T00:10:28.550Z,1.45
2018-08-06T00:10:41.054Z,1.45
2018-08-06T00:10:53.710Z,1.45
2018-08-06T00:11:06.204Z,1.45
2018-08-06T00:11:18.717Z,1.45
2018-08-06T00:11:31.270Z,1.33
2018-08-06T00:11:43.792Z,1.33
2018-08-06T00:11:56.293Z,1.33
2018-08-06T00:12:08.811Z,1.33
2018-08-06T00:12:21.332Z,1.33
2018-08-06T00:12:33.836Z,1.33
2018-08-06T00:12:46.360Z,1.33
2018-08-06T00:12:58.878Z,1.33
2018-08-06T00:13:11.384Z,1.33
2018-08-06T00:13:23.889Z,1.33
2018-08-06T00:13:36.407Z,1.33
2018-08-06T00:13:48.926Z,1.33
2018-08-06T00:14:01.456Z,1.33
2018-08-06T00:14:13.969Z,1.33
2018-08-06T00:14:26.481Z,1.33
2018-08-06T00:14:39.005Z,1.33
2018-08-06T00:14:51.542Z,1.33
2018-08-06T00:15:04.060Z,1.33
2018-08-06T00:15:16.568Z,1.33
2018-08-06T00:15:29.076Z,1.33
2018-08-06T00:15:41.580Z,1.33
2018-08-06T00:15:54.134Z,1.33
2018-08-06T00:16:06.665Z,1.33
2018-08-06T00:16:19.183Z,1.33
2018-08-06T00:16:31.734Z,1.33
2018-08-06T00:16:44.224Z,1.33
2018-08-06T00:16:56.737Z,1.33
2018-08-06T00:17:09.252Z,1.33
2018-08-06T00:17:21.742Z,1.33
2018-08-06T00:17:34.241Z,1.33
2018-08-06T00:17:46.747Z,1.33
2018-08-06T00:17:59.248Z,1.33
2018-08-06T00:18:11.756Z,1.33
2018-08-06T00:18:24.250Z,1.33
2018-08-06T00:18:36.752Z,1.33
2018-08-06T00:18:49.268Z,1.33
2018-08-06T00:19:01.872Z,1.33
2018-08-06T00:19:14.384Z,1.33
2018-08-06T00:19:26.900Z,1.33
2018-08-06T00:19:39.402Z,1.33
2018-08-06T00:19:51.909Z,1.33
2018-08-06T00:20:04.423Z,1.33
2018-08-06T00:20:16.933Z,1.33
2018-08-06T00:20:29.478Z,1.33
2018-08-06T00:20:41.983Z,1.33
2018-08-06T00:20:54.653Z,1.33
2018-08-06T00:21:07.301Z,1.33
2018-08-06T00:21:19.876Z,1.39
2018-08-06T00:21:32.388Z,1.39
2018-08-06T00:21:44.898Z,1.39
2018-08-06T00:21:57.549Z,1.39
2018-08-06T00:22:10.044Z,1.39
2018-08-06T00:22:22.554Z,1.39
2018-08-06T00:22:35.059Z,1.39
2018-08-06T00:22:47.640Z,1.39
2018-08-06T00:23:00.231Z,1.39
2018-08-06T00:23:12.746Z,1.39
2018-08-06T00:23:25.250Z,1.39
2018-08-06T00:23:37.775Z,1.39
2018-08-06T00:23:50.299Z,1.39
2018-08-06T00:24:02.814Z,1.39
2018-08-06T00:24:15.337Z,1.39
2018-08-06T00:24:27.855Z,1.39
2018-08-06T00:24:40.398Z,1.39
2018-08-06T00:24:52.912Z,1.39
2018-08-06T00:25:05.415Z,1.39
2018-08-06T00:25:17.946Z,1.39
2018-08-06T00:25:30.469Z,1.39
2018-08-06T00:25:42.972Z,1.39
2018-08-06T00:25:55.472Z,1.39
2018-08-06T00:26:07.999Z,1.39
2018-08-06T00:26:20.502Z,1.39
2018-08-06T00:26:33.051Z,1.39
2018-08-06T00:26:45.568Z,1.39
2018-08-06T00:26:58.239Z,1.39
2018-08-06T00:27:10.756Z,1.39
2018-08-06T00:27:23.281Z,1.39
2018-08-06T00:27:35.777Z,1.39
2018-08-06T00:27:48.288Z,1.39
2018-08-06T00:28:00.813Z,1.39
2018-08-06T00:28:13.322Z,1.39
2018-08-06T00:28:25.852Z,1.39
2018-08-06T00:28:38.363Z,1.39
2018-08-06T00:28:50.922Z,1.39
2018-08-06T00:29:03.439Z,1.39
2018-08-06T00:29:15.952Z,1.39
2018-08-06T00:29:28.571Z,1.39
2018-08-06T00:29:42.023Z,1.39
2018-08-06T00:29:54.838Z,1.39
2018-08-06T00:30:07.382Z,1.39
2018-08-06T00:30:19.908Z,1.39
2018-08-06T00:30:32.419Z,1.39
2018-08-06T00:30:44.922Z,1.39
2018-08-06T00:30:57.437Z,1.39
2018-08-06T00:31:10.042Z,1.39
2018-08-06T00:31:22.548Z,1.15
2018-08-06T00:31:35.053Z,1.15
2018-08-06T00:31:47.561Z,1.15
2018-08-06T00:32:00.068Z,1.15
2018-08-06T00:32:12.574Z,1.15
2018-08-06T00:32:25.079Z,1.15
2018-08-06T00:32:37.604Z,1.15
2018-08-06T00:32:50.142Z,1.15
2018-08-06T00:33:02.672Z,1.15
2018-08-06T00:33:15.187Z,1.15
2018-08-06T00:33:27.683Z,1.15
2018-08-06T00:33:40.199Z,1.15
2018-08-06T00:33:52.703Z,1.15
2018-08-06T00:34:05.224Z,1.15
2018-08-06T00:34:17.736Z,1.15
2018-08-06T00:34:30.246Z,1.15
2018-08-06T00:34:42.767Z,1.15
2018-08-06T00:34:55.308Z,1.15
2018-08-06T00:35:07.837Z,1.15
2018-08-06T00:35:20.338Z,1.15
2018-08-06T00:35:32.893Z,1.15
2018-08-06T00:35:45.415Z,1.15
2018-08-06T00:35:58.148Z,1.15
2018-08-06T00:36:10.657Z,1.15
2018-08-06T00:36:23.151Z,1.15
2018-08-06T00:36:35.668Z,1.15
2018-08-06T00:36:48.161Z,1.15
2018-08-06T00:37:00.662Z,1.15
2018-08-06T00:37:13.182Z,1.15
2018-08-06T00:37:25.685Z,1.15
2018-08-06T00:37:38.209Z,1.15
2018-08-06T00:37:50.728Z,1.15
2018-08-06T00:38:03.243Z,1.15
2018-08-06T00:38:15.751Z,1.15
2018-08-06T00:38:28.251Z,1.15
2018-08-06T00:38:40.750Z,1.15
2018-08-06T00:38:53.266Z,1.15
2018-08-06T00:39:05.837Z,1.15
2018-08-06T00:39:18.346Z,1.15
2018-08-06T00:39:31.043Z,1.15
2018-08-06T00:39:43.552Z,1.15
2018-08-06T00:39:56.069Z,1.15
2018-08-06T00:40:08.576Z,1.15
2018-08-06T00:40:21.147Z,1.15
2018-08-06T00:40:33.666Z,1.15
2018-08-06T00:40:46.160Z,1.15
2018-08-06T00:40:58.663Z,1.15
2018-08-06T00:41:11.175Z,1.15
2018-08-06T00:41:23.714Z,1.33
2018-08-06T00:41:36.240Z,1.33
2018-08-06T00:41:48.754Z,1.33
2018-08-06T00:42:01.265Z,1.33
2018-08-06T00:42:13.784Z,1.33
2018-08-06T00:42:26.290Z,1.33
2018-08-06T00:42:38.806Z,1.33
2018-08-06T00:42:51.317Z,1.33
2018-08-06T00:43:03.858Z,1.33
2018-08-06T00:43:16.378Z,1.33
2018-08-06T00:43:28.885Z,1.33
2018-08-06T00:43:41.400Z,1.33
2018-08-06T00:43:53.920Z,1.33
2018-08-06T00:44:06.416Z,1.33
2018-08-06T00:44:18.932Z,1.33
2018-08-06T00:44:31.480Z,1.33
2018-08-06T00:44:44.040Z,1.33
2018-08-06T00:44:56.547Z,1.33
2018-08-06T00:45:09.121Z,1.33
2018-08-06T00:45:21.920Z,1.33
2018-08-06T00:45:35.481Z,1.33
2018-08-06T00:45:48.082Z,1.33
2018-08-06T00:46:00.619Z,1.33
2018-08-06T00:46:13.127Z,1.33
2018-08-06T00:46:25.638Z,1.33
2018-08-06T00:46:38.149Z,1.33
2018-08-06T00:46:50.669Z,1.33
2018-08-06T00:47:03.179Z,1.33
2018-08-06T00:47:15.704Z,1.33
2018-08-06T00:47:28.218Z,1.33
2018-08-06T00:47:40.728Z,1.33
2018-08-06T00:47:53.240Z,1.33
2018-08-06T00:48:05.774Z,1.33
2018-08-06T00:48:18.277Z,1.33
2018-08-06T00:48:30.800Z,1.33
2018-08-06T00:48:43.318Z,1.33
2018-08-06T00:48:56.042Z,1.33
2018-08-06T00:49:08.558Z,1.33
2018-08-06T00:49:21.062Z,1.33
2018-08-06T00:49:33.582Z,1.33
2018-08-06T00:49:46.105Z,1.33
2018-08-06T00:49:58.591Z,1.33
2018-08-06T00:50:11.099Z,1.33
2018-08-06T00:50:23.641Z,1.33
2018-08-06T00:50:36.161Z,1.33
2018-08-06T00:50:48.674Z,1.33
2018-08-06T00:51:01.198Z,1.33
2018-08-06T00:51:13.714Z,1.33
2018-08-06T00:51:26.221Z,1.31
2018-08-06T00:51:38.823Z,1.31
2018-08-06T00:51:51.314Z,1.31
2018-08-06T00:52:03.835Z,1.31
2018-08-06T00:52:16.359Z,1.31
2018-08-06T00:52:28.867Z,1.31
2018-08-06T00:52:41.396Z,1.31
2018-08-06T00:52:53.924Z,1.31
2018-08-06T00:53:06.630Z,1.31
2018-08-06T00:53:19.161Z,1.31
2018-08-06T00:53:31.694Z,1.31
2018-08-06T00:53:44.185Z,1.31
2018-08-06T00:53:56.702Z,1.31
2018-08-06T00:54:09.224Z,1.31
2018-08-06T00:54:21.911Z,1.31
2018-08-06T00:54:34.405Z,1.31
2018-08-06T00:54:46.905Z,1.31
2018-08-06T00:54:59.413Z,1.31
2018-08-06T00:55:11.884Z,1.31
2018-08-06T00:55:24.285Z,1.31
2018-08-06T00:55:36.743Z,1.31
2018-08-06T00:55:49.305Z,1.31
2018-08-06T00:56:01.814Z,1.31
2018-08-06T00:56:14.320Z,1.31
2018-08-06T00:56:26.902Z,1.31
2018-08-06T00:56:39.390Z,1.31
2018-08-06T00:56:51.893Z,1.31
2018-08-06T00:57:04.756Z,1.31
2018-08-06T00:57:17.265Z,1.31
2018-08-06T00:57:29.915Z,1.31
2018-08-06T00:57:42.405Z,1.31
2018-08-06T00:57:54.927Z,1.31
2018-08-06T00:58:07.445Z,1.31
2018-08-06T00:58:19.974Z,1.31
2018-08-06T00:58:32.501Z,1.31
2018-08-06T00:58:44.991Z,1.31
2018-08-06T00:58:57.502Z,1.31
2018-08-06T00:59:10.016Z,1.31
2018-08-06T00:59:22.541Z,1.31
2018-08-06T00:59:35.053Z,1.31
2018-08-06T00:59:47.577Z,1.31
2018-08-06T01:00:00.117Z,1.31
2018-08-06T01:00:12.629Z,1.31
2018-08-06T01:00:25.145Z,1.31
2018-08-06T01:00:37.676Z,1.31
2018-08-06T01:00:50.222Z,1.31
2018-08-06T01:01:02.740Z,1.31
2018-08-06T01:01:15.260Z,1.31
2018-08-06T01:01:27.799Z,1.23
2018-08-06T01:01:40.343Z,1.23
2018-08-06T01:01:52.878Z,1.23
2018-08-06T01:02:05.383Z,1.23
2018-08-06T01:02:18.058Z,1.23
2018-08-06T01:02:30.574Z,1.23
2018-08-06T01:02:43.099Z,1.23
2018-08-06T01:02:55.626Z,1.23
2018-08-06T01:03:08.151Z,1.23
2018-08-06T01:03:20.669Z,1.23
2018-08-06T01:03:33.226Z,1.23
2018-08-06T01:03:45.723Z,1.23
2018-08-06T01:03:58.227Z,1.23
2018-08-06T01:04:10.739Z,1.23
2018-08-06T01:04:23.252Z,1.23
2018-08-06T01:04:35.774Z,1.23
2018-08-06T01:04:48.294Z,1.23
2018-08-06T01:05:00.805Z,1.23
2018-08-06T01:05:13.330Z,1.23
2018-08-06T01:05:25.980Z,1.23
2018-08-06T01:05:38.486Z,1.23
2018-08-06T01:05:50.974Z,1.23
2018-08-06T01:06:03.502Z,1.23
2018-08-06T01:06:16.083Z,1.23
2018-08-06T01:06:28.590Z,1.23
2018-08-06T01:06:41.113Z,1.23
2018-08-06T01:06:53.641Z,1.23
2018-08-06T01:07:06.150Z,1.23
2018-08-06T01:07:18.644Z,1.23
2018-08-06T01:07:31.160Z,1.23
2018-08-06T01:07:43.704Z,1.23
2018-08-06T01:07:56.221Z,1.23
2018-08-06T01:08:08.733Z,1.23
2018-08-06T01:08:21.261Z,1.23
2018-08-06T01:08:33.785Z,1.23
2018-08-06T01:08:46.288Z,1.23
2018-08-06T01:08:58.795Z,1.23
2018-08-06T01:09:11.301Z,1.23
2018-08-06T01:09:23.813Z,1.23
2018-08-06T01:09:36.336Z,1.23
2018-08-06T01:09:48.829Z,1.23
2018-08-06T01:10:01.332Z,1.23
2018-08-06T01:10:13.867Z,1.23
2018-08-06T01:10:26.384Z,1.23
2018-08-06T01:10:38.916Z,1.23
2018-08-06T01:10:51.623Z,1.23
2018-08-06T01:11:04.143Z,1.23
2018-08-06T01:11:16.649Z,1.23
2018-08-06T01:11:29.148Z,1.4
2018-08-06T01:11:41.654Z,1.4
2018-08-06T01:11:54.204Z,1.4
2018-08-06T01:12:06.742Z,1.4
2018-08-06T01:12:19.243Z,1.4
2018-08-06T01:12:31.740Z,1.4
2018-08-06T01:12:44.256Z,1.4
2018-08-06T01:12:56.778Z,1.4
2018-08-06T01:13:09.297Z,1.4
2018-08-06T01:13:21.807Z,1.4
2018-08-06T01:13:34.309Z,1.4
2018-08-06T01:13:46.888Z,1.4
2018-08-06T01:13:59.390Z,1.4
2018-08-06T01:14:11.915Z,1.4
2018-08-06T01:14:24.428Z,1.4
2018-08-06T01:14:36.930Z,1.4
2018-08-06T01:14:49.459Z,1.4
2018-08-06T01:15:01.957Z,1.4
2018-08-06T01:15:14.465Z,1.4
2018-08-06T01:15:27.000Z,1.4
2018-08-06T01:15:39.518Z,1.4
2018-08-06T01:15:52.095Z,1.4
2018-08-06T01:16:04.599Z,1.4
2018-08-06T01:16:17.117Z,1.4
2018-08-06T01:16:29.616Z,1.4
2018-08-06T01:16:42.138Z,1.4
2018-08-06T01:16:54.658Z,1.4
2018-08-06T01:17:07.163Z,1.4
2018-08-06T01:17:19.678Z,1.4
2018-08-06T01:17:32.175Z,1.4
2018-08-06T01:17:44.680Z,1.4
2018-08-06T01:17:57.198Z,1.4
2018-08-06T01:18:09.725Z,1.4
2018-08-06T01:18:22.265Z,1.4
2018-08-06T01:18:34.765Z,1.4
2018-08-06T01:18:47.272Z,1.4
2018-08-06T01:18:59.791Z,1.4
2018-08-06T01:19:12.330Z,1.4
2018-08-06T01:19:24.836Z,1.4
2018-08-06T01:19:37.369Z,1.4
2018-08-06T01:19:49.930Z,1.4
2018-08-06T01:20:02.456Z,1.4
2018-08-06T01:20:14.959Z,1.4
2018-08-06T01:20:27.510Z,1.4
2018-08-06T01:20:40.007Z,1.4
2018-08-06T01:20:52.845Z,1.4
2018-08-06T01:21:05.349Z,1.4
2018-08-06T01:21:18.025Z,1.4
2018-08-06T01:21:30.509Z,1.4
2018-08-06T01:21:43.010Z,1.4
2018-08-06T01:21:55.643Z,1.4
2018-08-06T01:22:08.162Z,1.4
2018-08-06T01:22:20.668Z,1.4
2018-08-06T01:22:33.191Z,1.4
2018-08-06T01:22:45.697Z,1.4
2018-08-06T01:22:58.223Z,1.4
2018-08-06T01:23:10.722Z,1.4
2018-08-06T01:23:23.223Z,1.4
2018-08-06T01:23:35.725Z,1.4
2018-08-06T01:23:48.235Z,1.4
2018-08-06T01:24:00.768Z,1.4
2018-08-06T01:24:13.290Z,1.4
2018-08-06T01:24:26.031Z,1.4
2018-08-06T01:24:38.562Z,1.4
2018-08-06T01:24:51.083Z,1.4
2018-08-06T01:25:03.633Z,1.4
2018-08-06T01:25:16.160Z,1.4
2018-08-06T01:25:28.686Z,1.4
2018-08-06T01:25:41.194Z,1.4
2018-08-06T01:25:53.736Z,1.4
2018-08-06T01:26:06.306Z,1.4
2018-08-06T01:26:18.830Z,1.4
2018-08-06T01:26:31.332Z,1.4
2018-08-06T01:26:43.850Z,1.4
2018-08-06T01:26:56.412Z,1.4
2018-08-06T01:27:08.934Z,1.4
2018-08-06T01:27:21.496Z,1.4
2018-08-06T01:27:34.138Z,1.4
2018-08-06T01:27:46.675Z,1.4
2018-08-06T01:27:59.178Z,1.4
2018-08-06T01:28:11.693Z,1.4
2018-08-06T01:28:24.204Z,1.4
2018-08-06T01:28:36.732Z,1.4
2018-08-06T01:28:49.243Z,1.4
2018-08-06T01:29:01.774Z,1.4
2018-08-06T01:29:14.275Z,1.4
2018-08-06T01:29:26.787Z,1.4
2018-08-06T01:29:39.299Z,1.4
2018-08-06T01:29:51.805Z,1.4
2018-08-06T01:30:04.495Z,1.4
2018-08-06T01:30:17.282Z,1.4
2018-08-06T01:30:29.803Z,1.4
2018-08-06T01:30:42.318Z,1.4
2018-08-06T01:30:54.824Z,1.4
2018-08-06T01:31:07.387Z,1.4
2018-08-06T01:31:19.883Z,1.4
2018-08-06T01:31:32.375Z,1.42
2018-08-06T01:31:44.884Z,1.42
2018-08-06T01:31:57.395Z,1.42
2018-08-06T01:32:09.921Z,1.42
2018-08-06T01:32:22.427Z,1.42
2018-08-06T01:32:34.918Z,1.42
2018-08-06T01:32:47.471Z,1.42
2018-08-06T01:33:00.014Z,1.42
2018-08-06T01:33:12.532Z,1.42
2018-08-06T01:33:25.044Z,1.42
2018-08-06T01:33:37.557Z,1.42
2018-08-06T01:33:50.075Z,1.42
2018-08-06T01:34:02.575Z,1.42
2018-08-06T01:34:15.090Z,1.42
2018-08-06T01:34:27.600Z,1.42
2018-08-06T01:34:40.110Z,1.42
2018-08-06T01:34:52.630Z,1.42
2018-08-06T01:35:05.139Z,1.42
2018-08-06T01:35:17.703Z,1.42
2018-08-06T01:35:30.217Z,1.42
2018-08-06T01:35:42.709Z,1.42
2018-08-06T01:35:55.236Z,1.42
2018-08-06T01:36:07.756Z,1.42
2018-08-06T01:36:20.265Z,1.42
2018-08-06T01:36:32.846Z,1.42
2018-08-06T01:36:45.362Z,1.42
2018-08-06T01:36:57.887Z,1.42
2018-08-06T01:37:10.404Z,1.42
2018-08-06T01:37:22.907Z,1.42
2018-08-06T01:37:35.390Z,1.42
2018-08-06T01:37:47.916Z,1.42
2018-08-06T01:38:00.426Z,1.42
2018-08-06T01:38:12.933Z,1.42
2018-08-06T01:38:25.453Z,1.42
2018-08-06T01:38:37.971Z,1.42
2018-08-06T01:38:50.482Z,1.42
2018-08-06T01:39:02.999Z,1.42
2018-08-06T01:39:15.570Z,1.42
2018-08-06T01:39:28.222Z,1.42
2018-08-06T01:39:40.727Z,1.42
2018-08-06T01:39:53.233Z,1.42
2018-08-06T01:40:05.810Z,1.42
2018-08-06T01:40:18.333Z,1.42
2018-08-06T01:40:30.842Z,1.42
2018-08-06T01:40:43.401Z,1.42
2018-08-06T01:40:55.908Z,1.42
2018-08-06T01:41:08.415Z,1.42
2018-08-06T01:41:20.917Z,1.42
2018-08-06T01:41:33.451Z,1.64
2018-08-06T01:41:45.960Z,1.64
2018-08-06T01:41:58.490Z,1.64
2018-08-06T01:42:11.020Z,1.64
2018-08-06T01:42:23.532Z,1.64
2018-08-06T01:42:36.049Z,1.64
2018-08-06T01:42:48.554Z,1.64
2018-08-06T01:43:01.084Z,1.64
2018-08-06T01:43:13.630Z,1.64
2018-08-06T01:43:26.127Z,1.64
2018-08-06T01:43:38.639Z,1.64
2018-08-06T01:43:51.165Z,1.64
2018-08-06T01:44:03.719Z,1.64
2018-08-06T01:44:16.256Z,1.64
2018-08-06T01:44:28.794Z,1.64
2018-08-06T01:44:41.328Z,1.64
2018-08-06T01:44:53.829Z,1.64
2018-08-06T01:45:06.346Z,1.64
2018-08-06T01:45:18.860Z,1.64
2018-08-06T01:45:31.389Z,1.64
2018-08-06T01:45:44.322Z,1.64
2018-08-06T01:45:57.732Z,1.64
2018-08-06T01:46:10.288Z,1.64
2018-08-06T01:46:22.968Z,1.64
2018-08-06T01:46:35.475Z,1.64
2018-08-06T01:46:47.973Z,1.64
2018-08-06T01:47:00.487Z,1.64
2018-08-06T01:47:13.014Z,1.64
2018-08-06T01:47:25.519Z,1.64
2018-08-06T01:47:38.041Z,1.64
2018-08-06T01:47:50.567Z,1.64
2018-08-06T01:48:03.070Z,1.64
2018-08-06T01:48:15.599Z,1.64
2018-08-06T01:48:28.100Z,1.64
2018-08-06T01:48:40.619Z,1.64
2018-08-06T01:48:53.233Z,1.64
2018-08-06T01:49:05.764Z,1.64
2018-08-06T01:49:18.283Z,1.64
2018-08-06T01:49:30.792Z,1.64
2018-08-06T01:49:43.317Z,1.64
2018-08-06T01:49:55.801Z,1.64
2018-08-06T01:50:08.303Z,1.64
2018-08-06T01:50:20.881Z,1.64
2018-08-06T01:50:33.360Z,1.64
2018-08-06T01:50:45.899Z,1.64
2018-08-06T01:50:58.427Z,1.64
2018-08-06T01:51:10.939Z,1.64
2018-08-06T01:51:23.462Z,1.64
2018-08-06T01:51:36.096Z,1.9
2018-08-06T01:51:48.620Z,1.9
2018-08-06T01:52:01.126Z,1.9
2018-08-06T01:52:13.704Z,1.9
2018-08-06T01:52:26.249Z,1.9
2018-08-06T01:52:38.777Z,1.9
2018-08-06T01:52:51.309Z,1.9
2018-08-06T01:53:03.834Z,1.9
2018-08-06T01:53:16.350Z,1.9
2018-08-06T01:53:28.872Z,1.9
2018-08-06T01:53:41.398Z,1.9
2018-08-06T01:53:53.900Z,1.9
2018-08-06T01:54:06.418Z,1.9
2018-08-06T01:54:18.915Z,1.9
2018-08-06T01:54:31.426Z,1.9
2018-08-06T01:54:43.956Z,1.9
2018-08-06T01:54:56.459Z,1.9
2018-08-06T01:55:08.977Z,1.9
2018-08-06T01:55:21.533Z,1.9
2018-08-06T01:55:34.038Z,1.9
2018-08-06T01:55:46.599Z,1.9
2018-08-06T01:55:59.111Z,1.9
2018-08-06T01:56:11.639Z,1.9
2018-08-06T01:56:24.175Z,1.9
2018-08-06T01:56:36.783Z,1.9
2018-08-06T01:56:49.317Z,1.9
2018-08-06T01:57:01.818Z,1.9
2018-08-06T01:57:14.333Z,1.9
2018-08-06T01:57:26.848Z,1.9
2018-08-06T01:57:39.378Z,1.9
2018-08-06T01:57:51.888Z,1.9
2018-08-06T01:58:04.399Z,1.9
2018-08-06T01:58:16.931Z,1.9
2018-08-06T01:58:29.427Z,1.9
2018-08-06T01:58:41.921Z,1.9
2018-08-06T01:58:54.430Z,1.9
2018-08-06T01:59:06.931Z,1.9
2018-08-06T01:59:24.551Z,1.9
2018-08-06T01:59:37.117Z,1.9
2018-08-06T01:59:49.647Z,1.9
2018-08-06T02:00:02.177Z,1.9
2018-08-06T02:00:14.715Z,1.9
2018-08-06T02:00:27.236Z,1.9
2018-08-06T02:00:39.793Z,1.9
2018-08-06T02:00:52.325Z,1.9
2018-08-06T02:01:04.867Z,1.9
2018-08-06T02:01:17.385Z,1.9
2018-08-06T02:01:29.938Z,1.9
2018-08-06T02:01:42.494Z,1.54
2018-08-06T02:01:55.022Z,1.54
2018-08-06T02:02:07.539Z,1.54
2018-08-06T02:02:20.180Z,1.54
2018-08-06T02:02:32.705Z,1.54
2018-08-06T02:02:45.218Z,1.54
2018-08-06T02:02:57.725Z,1.54
2018-08-06T02:03:10.222Z,1.54
2018-08-06T02:03:22.723Z,1.54
2018-08-06T02:03:35.217Z,1.54
2018-08-06T02:03:47.729Z,1.54
2018-08-06T02:04:00.234Z,1.54
2018-08-06T02:04:12.747Z,1.54
2018-08-06T02:04:25.265Z,1.54
2018-08-06T02:04:37.770Z,1.54
2018-08-06T02:04:50.304Z,1.54
2018-08-06T02:05:02.816Z,1.54
2018-08-06T02:05:15.387Z,1.54
2018-08-06T02:05:28.002Z,1.54
2018-08-06T02:05:40.527Z,1.54
2018-08-06T02:05:53.052Z,1.54
2018-08-06T02:06:05.619Z,1.54
2018-08-06T02:06:18.130Z,1.54
2018-08-06T02:06:30.633Z,1.54
2018-08-06T02:06:43.143Z,1.54
2018-08-06T02:06:55.669Z,1.54
2018-08-06T02:07:08.190Z,1.54
2018-08-06T02:07:20.701Z,1.54
2018-08-06T02:07:33.238Z,1.54
2018-08-06T02:07:45.776Z,1.54
2018-08-06T02:07:58.295Z,1.54
2018-08-06T02:08:10.810Z,1.54
2018-08-06T02:08:23.328Z,1.54
2018-08-06T02:08:35.855Z,1.54
2018-08-06T02:08:48.366Z,1.54
2018-08-06T02:09:00.864Z,1.54
2018-08-06T02:09:13.400Z,1.54
2018-08-06T02:09:25.969Z,1.54
2018-08-06T02:09:38.459Z,1.54
2018-08-06T02:09:50.966Z,1.54
2018-08-06T02:10:03.480Z,1.54
2018-08-06T02:10:15.998Z,1.54
2018-08-06T02:10:28.592Z,1.54
2018-08-06T02:10:41.098Z,1.54
2018-08-06T02:10:53.775Z,1.54
2018-08-06T02:11:06.292Z,1.54
2018-08-06T02:11:18.822Z,1.54
2018-08-06T02:11:31.339Z,1.54
2018-08-06T02:11:43.852Z,1.7
2018-08-06T02:11:56.366Z,1.7
2018-08-06T02:12:08.890Z,1.7
2018-08-06T02:12:21.413Z,1.7
2018-08-06T02:12:33.938Z,1.7
2018-08-06T02:12:46.460Z,1.7
2018-08-06T02:12:58.988Z,1.7
2018-08-06T02:13:11.510Z,1.7
2018-08-06T02:13:24.024Z,1.7
2018-08-06T02:13:36.525Z,1.7
2018-08-06T02:13:49.055Z,1.7
2018-08-06T02:14:01.591Z,1.7
2018-08-06T02:14:14.098Z,1.7
2018-08-06T02:14:26.599Z,1.7
2018-08-06T02:14:39.126Z,1.7
2018-08-06T02:14:51.663Z,1.7
2018-08-06T02:15:04.202Z,1.7
2018-08-06T02:15:16.745Z,1.7
2018-08-06T02:15:29.256Z,1.7
2018-08-06T02:15:41.756Z,1.7
2018-08-06T02:15:54.285Z,1.7
2018-08-06T02:16:06.803Z,1.7
2018-08-06T02:16:19.321Z,1.7
2018-08-06T02:16:31.881Z,1.7
2018-08-06T02:16:44.422Z,1.7
2018-08-06T02:16:56.942Z,1.7
2018-08-06T02:17:09.468Z,1.7
2018-08-06T02:17:21.982Z,1.7
2018-08-06T02:17:34.487Z,1.7
2018-08-06T02:17:47.004Z,1.7
2018-08-06T02:17:59.549Z,1.7
2018-08-06T02:18:12.062Z,1.7
2018-08-06T02:18:24.583Z,1.7
2018-08-06T02:18:37.080Z,1.7
2018-08-06T02:18:49.604Z,1.7
2018-08-06T02:19:02.111Z,1.7
2018-08-06T02:19:14.608Z,1.7
2018-08-06T02:19:27.140Z,1.7
2018-08-06T02:19:39.665Z,1.7
2018-08-06T02:19:52.186Z,1.7
2018-08-06T02:20:04.692Z,1.7
2018-08-06T02:20:17.206Z,1.7
2018-08-06T02:20:29.770Z,1.7
2018-08-06T02:20:42.286Z,1.7
2018-08-06T02:20:54.974Z,1.7
2018-08-06T02:21:07.628Z,1.7
2018-08-06T02:21:20.165Z,1.7
2018-08-06T02:21:32.660Z,1.7
2018-08-06T02:21:45.220Z,1.67
2018-08-06T02:21:57.858Z,1.67
2018-08-06T02:22:10.372Z,1.67
2018-08-06T02:22:22.918Z,1.67
2018-08-06T02:22:35.419Z,1.67
2018-08-06T02:22:47.939Z,1.67
2018-08-06T02:23:00.456Z,1.67
2018-08-06T02:23:12.978Z,1.67
2018-08-06T02:23:25.479Z,1.67
2018-08-06T02:23:37.978Z,1.67
2018-08-06T02:23:50.475Z,1.67
2018-08-06T02:24:02.980Z,1.67
2018-08-06T02:24:15.514Z,1.67
2018-08-06T02:24:28.072Z,1.67
2018-08-06T02:24:40.621Z,1.67
2018-08-06T02:24:53.148Z,1.67
2018-08-06T02:25:05.689Z,1.67
2018-08-06T02:25:18.231Z,1.67
2018-08-06T02:25:30.750Z,1.67
2018-08-06T02:25:43.264Z,1.67
2018-08-06T02:25:55.817Z,1.67
2018-08-06T02:26:08.313Z,1.67
2018-08-06T02:26:20.820Z,1.67
2018-08-06T02:26:33.356Z,1.67
2018-08-06T02:26:45.889Z,1.67
2018-08-06T02:26:58.404Z,1.67
2018-08-06T02:27:10.932Z,1.67
2018-08-06T02:27:23.446Z,1.67
2018-08-06T02:27:35.945Z,1.67
2018-08-06T02:27:48.463Z,1.67
2018-08-06T02:28:00.960Z,1.67
2018-08-06T02:28:13.706Z,1.67
2018-08-06T02:28:26.208Z,1.67
2018-08-06T02:28:38.700Z,1.67
2018-08-06T02:28:51.236Z,1.67
2018-08-06T02:29:03.745Z,1.67
2018-08-06T02:29:16.249Z,1.67
2018-08-06T02:29:28.779Z,1.67
2018-08-06T02:29:41.284Z,1.67
2018-08-06T02:29:53.802Z,1.67
2018-08-06T02:30:06.325Z,1.67
2018-08-06T02:30:19.123Z,1.67
2018-08-06T02:30:31.693Z,1.67
2018-08-06T02:30:44.234Z,1.67
2018-08-06T02:30:56.851Z,1.67
2018-08-06T02:31:09.371Z,1.67
2018-08-06T02:31:21.903Z,1.67
2018-08-06T02:31:34.434Z,1.67
2018-08-06T02:31:47.001Z,1.85
2018-08-06T02:31:59.534Z,1.85
2018-08-06T02:32:12.089Z,1.85
2018-08-06T02:32:24.612Z,1.85
2018-08-06T02:32:37.143Z,1.85
2018-08-06T02:32:49.673Z,1.85
2018-08-06T02:33:02.198Z,1.85
2018-08-06T02:33:14.739Z,1.85
2018-08-06T02:33:27.267Z,1.85
2018-08-06T02:33:39.810Z,1.85
2018-08-06T02:33:52.351Z,1.85
2018-08-06T02:34:04.871Z,1.85
2018-08-06T02:34:17.423Z,1.85
2018-08-06T02:34:29.942Z,1.85
2018-08-06T02:34:42.518Z,1.85
2018-08-06T02:34:55.062Z,1.85
2018-08-06T02:35:07.588Z,1.85
2018-08-06T02:35:20.185Z,1.85
2018-08-06T02:35:32.855Z,1.85
2018-08-06T02:35:45.374Z,1.85
2018-08-06T02:35:58.091Z,1.85
2018-08-06T02:36:10.687Z,1.85
2018-08-06T02:36:23.237Z,1.85
2018-08-06T02:36:35.781Z,1.85
2018-08-06T02:36:48.323Z,1.85
2018-08-06T02:37:00.861Z,1.85
2018-08-06T02:37:13.408Z,1.85
2018-08-06T02:37:25.964Z,1.85
2018-08-06T02:37:38.480Z,1.85
2018-08-06T02:37:51.016Z,1.85
2018-08-06T02:38:03.553Z,1.85
2018-08-06T02:38:16.116Z,1.85
2018-08-06T02:38:28.644Z,1.85
2018-08-06T02:38:41.513Z,1.85
2018-08-06T02:38:54.028Z,1.85
2018-08-06T02:39:06.637Z,1.85
2018-08-06T02:39:19.183Z,1.85
2018-08-06T02:39:31.930Z,1.85
2018-08-06T02:39:44.470Z,1.85
2018-08-06T02:39:57.018Z,1.85
2018-08-06T02:40:09.538Z,1.85
2018-08-06T02:40:22.085Z,1.85
2018-08-06T02:40:34.609Z,1.85
2018-08-06T02:40:47.123Z,1.85
2018-08-06T02:40:59.659Z,1.85
2018-08-06T02:41:12.330Z,1.85
2018-08-06T02:41:24.845Z,1.85
2018-08-06T02:41:37.366Z,1.8
2018-08-06T02:41:49.917Z,1.8
2018-08-06T02:42:02.473Z,1.8
2018-08-06T02:42:15.005Z,1.8
2018-08-06T02:42:27.539Z,1.8
2018-08-06T02:42:40.079Z,1.8
2018-08-06T02:42:52.593Z,1.8
2018-08-06T02:43:05.141Z,1.8
2018-08-06T02:43:17.702Z,1.8
2018-08-06T02:43:30.233Z,1.8
2018-08-06T02:43:42.727Z,1.8
2018-08-06T02:43:55.238Z,1.8
2018-08-06T02:44:07.761Z,1.8
2018-08-06T02:44:20.273Z,1.8
2018-08-06T02:44:32.819Z,1.8
2018-08-06T02:44:45.337Z,1.8
2018-08-06T02:44:57.874Z,1.8
2018-08-06T02:45:10.385Z,1.8
2018-08-06T02:45:22.911Z,1.8
2018-08-06T02:45:35.426Z,1.8
2018-08-06T02:45:48.001Z,1.8
2018-08-06T02:46:00.519Z,1.8
2018-08-06T02:46:13.110Z,1.8
2018-08-06T02:46:25.625Z,1.8
2018-08-06T02:46:38.132Z,1.8
2018-08-06T02:46:50.631Z,1.8
2018-08-06T02:47:03.199Z,1.8
2018-08-06T02:47:15.717Z,1.8
2018-08-06T02:47:28.213Z,1.8
2018-08-06T02:47:40.740Z,1.8
2018-08-06T02:47:53.266Z,1.8
2018-08-06T02:48:05.776Z,1.8
2018-08-06T02:48:18.289Z,1.8
2018-08-06T02:48:30.800Z,1.8